| time (UTC) | temp C | wind direction | speed KPH | gust KPH | rain 1hr cm | rain 24hr cm | rain mn cm | humidity % | barometer mb |
| 20260906230009 | 28 | 160 | 0.0 | 6.4 | 0.00 | 0.00 | 0.00 | 15 | 999.7 |
| 20260906224507 | 28 | 175 | 1.6 | 11.3 | 0.00 | 0.00 | 0.00 | 15 | 999.8 |
| 20260906223005 | 28 | 158 | 1.6 | 8.0 | 0.00 | 0.00 | 0.00 | 15 | 999.7 |
| 20260906221504 | 28 | 225 | 1.6 | 9.7 | 0.00 | 0.00 | 0.00 | 15 | 999.7 |
| 20260906220016 | 27 | 317 | 1.6 | 12.9 | 0.00 | 0.00 | 0.00 | 16 | 1000.0 |
| 20260906214613 | 27 | 158 | 3.2 | 14.5 | 0.00 | 0.00 | 0.00 | 15 | 1000.2 |
| 20260906213101 | 27 | 343 | 1.6 | 11.3 | 0.00 | 0.00 | 0.00 | 15 | 1000.4 |
| 20260906211556 | 27 | 290 | 3.2 | 11.3 | 0.00 | 0.00 | 0.00 | 16 | 1000.7 |
| 20260906210109 | 27 | 336 | 1.6 | 8.0 | 0.00 | 0.00 | 0.00 | 17 | 1000.8 |
| 20260906204555 | 27 | 5 | 3.2 | 11.3 | 0.00 | 0.00 | 0.00 | 17 | 1000.8 |
| 20260906203053 | 28 | 168 | 1.6 | 11.3 | 0.00 | 0.00 | 0.00 | 18 | 1000.9 |
| 20260906201623 | 27 | 309 | 1.6 | 8.0 | 0.00 | 0.00 | 0.00 | 18 | 1001.1 |
| 20260906200048 | 26 | 12 | 1.6 | 6.4 | 0.00 | 0.00 | 0.00 | 17 | 1001.4 |
| 20260906194550 | 26 | 348 | 3.2 | 14.5 | 0.00 | 0.00 | 0.00 | 19 | 1001.4 |
| 20260906193045 | 27 | 330 | 1.6 | 6.4 | 0.00 | 0.00 | 0.00 | 19 | 1001.5 |
| 20260906191558 | 26 | 307 | 1.6 | 8.0 | 0.00 | 0.00 | 0.00 | 18 | 1001.6 |
| 20260906190042 | 26 | 273 | 1.6 | 12.9 | 0.00 | 0.00 | 0.00 | 20 | 1001.8 |
| 20260906184545 | 26 | 175 | 1.6 | 8.0 | 0.00 | 0.00 | 0.00 | 20 | 1002.0 |
| 20260906183042 | 26 | 323 | 1.6 | 8.0 | 0.00 | 0.00 | 0.00 | 21 | 1002.2 |
| 20260906181553 | 25 | 163 | 1.6 | 11.3 | 0.00 | 0.00 | 0.00 | 23 | 1002.4 |
| 20260906180033 | 25 | 221 | 1.6 | 8.0 | 0.00 | 0.00 | 0.00 | 27 | 1002.6 |
| 20260906174527 | 23 | 197 | 0.0 | 9.7 | 0.00 | 0.00 | 0.00 | 29 | 1003.0 |
| 20260906173027 | 23 | 333 | 1.6 | 8.0 | 0.00 | 0.00 | 0.00 | 29 | 1003.3 |
| 20260906171530 | 23 | 142 | 1.6 | 8.0 | 0.00 | 0.00 | 0.00 | 28 | 1003.4 |
| 20260906170023 | 22 | 145 | 1.6 | 8.0 | 0.00 | 0.00 | 0.00 | 30 | 1003.6 |
| 20260906164519 | 21 | 269 | 3.2 | 11.3 | 0.00 | 0.00 | 0.00 | 33 | 1003.6 |
| 20260906163024 | 21 | 234 | 3.2 | 16.1 | 0.00 | 0.00 | 0.00 | 34 | 1003.6 |
| 20260906161516 | 21 | 230 | 1.6 | 11.3 | 0.00 | 0.00 | 0.00 | 34 | 1003.6 |
| 20260906160012 | 21 | 252 | 0.0 | 4.8 | 0.00 | 0.00 | 0.00 | 38 | 1003.7 |
| 20260906154509 | 20 | 42 | 1.6 | 4.8 | 0.00 | 0.00 | 0.00 | 41 | 1003.7 |
| 20260906153004 | 18 | 346 | 1.6 | 4.8 | 0.00 | 0.00 | 0.00 | 44 | 1003.7 |
| 20260906151601 | 17 | 321 | 1.6 | 3.2 | 0.00 | 0.00 | 0.00 | 46 | 1003.8 |
| 20260906150057 | 16 | 341 | 0.0 | 3.2 | 0.00 | 0.00 | 0.00 | 51 | 1004.0 |
| 20260906144556 | 15 | 329 | 3.2 | 6.4 | 0.00 | 0.00 | 0.00 | 55 | 1004.1 |
| 20260906143054 | 12 | 312 | 0.0 | 3.2 | 0.00 | 0.00 | 0.00 | 62 | 1004.1 |
| 20260906141549 | 11 | 5 | 0.0 | 1.6 | 0.00 | 0.00 | 0.00 | 66 | 1004.1 |
| 20260906140101 | 10 | 329 | 1.6 | 4.8 | 0.00 | 0.00 | 0.00 | 68 | 1004.1 |
| 20260906134600 | 9 | 287 | 0.0 | 4.8 | 0.00 | 0.00 | 0.00 | 70 | 1004.0 |
| 20260906133046 | 10 | 317 | 1.6 | 3.2 | 0.00 | 0.00 | 0.00 | 68 | 1003.9 |
| 20260906131545 | 10 | 177 | 0.0 | 1.6 | 0.00 | 0.00 | 0.00 | 68 | 1003.7 |
| 20260906130052 | 10 | 174 | 0.0 | 3.2 | 0.00 | 0.00 | 0.00 | 68 | 1003.6 |
| 20260906124544 | 10 | 174 | 1.6 | 4.8 | 0.00 | 0.00 | 0.00 | 69 | 1003.5 |
| 20260906123043 | 9 | 177 | 1.6 | 3.2 | 0.00 | 0.00 | 0.00 | 71 | 1003.6 |
| 20260906121546 | 9 | 183 | 1.6 | 3.2 | 0.00 | 0.00 | 0.00 | 71 | 1003.5 |
| 20260906120042 | 9 | 173 | 1.6 | 3.2 | 0.00 | 0.00 | 0.00 | 71 | 1003.5 |
| 20260906114545 | 9 | 164 | 1.6 | 3.2 | 0.00 | 0.00 | 0.00 | 71 | 1003.7 |
| 20260906113043 | 9 | 178 | 1.6 | 3.2 | 0.00 | 0.00 | 0.00 | 71 | 1003.6 |
| 20260906111538 | 9 | 171 | 1.6 | 3.2 | 0.00 | 0.00 | 0.00 | 70 | 1003.6 |
| 20260906110034 | 10 | 177 | 1.6 | 3.2 | 0.00 | 0.00 | 0.00 | 67 | 1003.4 |
| 20260906104531 | 11 | 138 | 1.6 | 4.8 | 0.00 | 0.00 | 0.00 | 63 | 1003.4 |
| 20260906103030 | 11 | 202 | 0.0 | 3.2 | 0.00 | 0.00 | 0.00 | 62 | 1003.4 |
| 20260906101530 | 11 | 199 | 0.0 | 3.2 | 0.00 | 0.00 | 0.00 | 64 | 1003.4 |
| 20260906100031 | 11 | 193 | 0.0 | 3.2 | 0.00 | 0.00 | 0.00 | 62 | 1003.3 |
| 20260906094528 | 12 | 174 | 0.0 | 1.6 | 0.00 | 0.00 | 0.00 | 61 | 1003.2 |
| 20260906093026 | 12 | 281 | 0.0 | 3.2 | 0.00 | 0.00 | 0.00 | 60 | 1003.2 |
| 20260906091532 | 12 | 309 | 0.0 | 3.2 | 0.00 | 0.00 | 0.00 | 59 | 1003.3 |
| 20260906090026 | 11 | 192 | 0.0 | 0.0 | 0.00 | 0.00 | 0.00 | 63 | 1003.4 |
| 20260906084531 | 11 | 192 | 0.0 | 1.6 | 0.00 | 0.00 | 0.00 | 65 | 1003.4 |
| 20260906083022 | 11 | 187 | 1.6 | 3.2 | 0.00 | 0.00 | 0.00 | 64 | 1003.4 |
| 20260906081524 | 12 | 169 | 1.6 | 3.2 | 0.00 | 0.00 | 0.00 | 61 | 1003.3 |
| 20260906080016 | 12 | 182 | 1.6 | 1.6 | 0.00 | 0.00 | 0.00 | 59 | 1003.3 |
| 20260906074513 | 13 | 259 | 0.0 | 3.2 | 0.00 | 0.00 | 0.00 | 57 | 1003.3 |
| 20260906073012 | 13 | 294 | 0.0 | 3.2 | 0.00 | 0.00 | 0.00 | 56 | 1003.4 |
| 20260906071511 | 13 | 294 | 0.0 | 3.2 | 0.00 | 0.00 | 0.00 | 56 | 1003.4 |
| 20260906070010 | 13 | 281 | 0.0 | 3.2 | 0.00 | 0.00 | 0.00 | 56 | 1003.5 |
| 20260906064519 | 13 | 311 | 0.0 | 3.2 | 0.00 | 0.00 | 0.00 | 57 | 1003.4 |
| 20260906063006 | 13 | 313 | 1.6 | 4.8 | 0.00 | 0.00 | 0.00 | 57 | 1003.5 |
| 20260906061505 | 13 | 311 | 1.6 | 6.4 | 0.00 | 0.00 | 0.00 | 58 | 1003.6 |
| 20260906060001 | 13 | 327 | 1.6 | 4.8 | 0.00 | 0.00 | 0.00 | 59 | 1003.6 |
| 20260906054502 | 13 | 346 | 3.2 | 6.4 | 0.00 | 0.00 | 0.00 | 59 | 1003.7 |
| 20260906053001 | 13 | 313 | 3.2 | 6.4 | 0.00 | 0.00 | 0.00 | 58 | 1003.9 |
| 20260906051502 | 13 | 325 | 4.8 | 11.3 | 0.00 | 0.00 | 0.00 | 58 | 1003.8 |
| 20260906050003 | 13 | 336 | 6.4 | 11.3 | 0.00 | 0.00 | 0.00 | 57 | 1003.9 |
| 20260906044602 | 14 | 331 | 4.8 | 9.7 | 0.00 | 0.00 | 0.00 | 53 | 1003.7 |
| 20260906043109 | 15 | 313 | 0.0 | 3.2 | 0.00 | 0.00 | 0.00 | 50 | 1003.5 |
| 20260906041602 | 16 | 290 | 0.0 | 3.2 | 0.00 | 0.00 | 0.00 | 48 | 1003.5 |
| 20260906040059 | 16 | 138 | 0.0 | 1.6 | 0.00 | 0.00 | 0.00 | 47 | 1003.6 |
| 20260906034602 | 16 | 172 | 0.0 | 3.2 | 0.00 | 0.00 | 0.00 | 47 | 1003.5 |
| 20260906033058 | 16 | 188 | 0.0 | 3.2 | 0.00 | 0.00 | 0.00 | 46 | 1003.4 |
| 20260906031624 | 17 | 182 | 0.0 | 3.2 | 0.00 | 0.00 | 0.00 | 45 | 1003.4 |
| 20260906030058 | 17 | 172 | 0.0 | 3.2 | 0.00 | 0.00 | 0.00 | 44 | 1003.2 |
| 20260906024559 | 17 | 196 | 0.0 | 3.2 | 0.00 | 0.00 | 0.00 | 43 | 1003.1 |
| 20260906023109 | 18 | 196 | 0.0 | 4.8 | 0.00 | 0.00 | 0.00 | 43 | 1002.9 |
| 20260906021557 | 18 | 188 | 0.0 | 8.0 | 0.00 | 0.00 | 0.00 | 42 | 1002.9 |
| 20260906020100 | 18 | 150 | 0.0 | 3.2 | 0.00 | 0.00 | 0.00 | 42 | 1002.7 |
| 20260906014555 | 18 | 130 | 0.0 | 3.2 | 0.00 | 0.00 | 0.00 | 42 | 1002.6 |
| 20260906013055 | 19 | 135 | 1.6 | 11.3 | 0.00 | 0.00 | 0.00 | 42 | 1002.1 |
| 20260906011603 | 19 | 163 | 6.4 | 16.1 | 0.00 | 0.00 | 0.00 | 41 | 1002.0 |
| 20260906010053 | 20 | 168 | 4.8 | 11.3 | 0.00 | 0.00 | 0.00 | 37 | 1001.9 |
| 20260906004558 | 21 | 175 | 4.8 | 16.1 | 0.00 | 0.00 | 0.00 | 33 | 1001.8 |
| 20260906003053 | 22 | 161 | 6.4 | 16.1 | 0.00 | 0.00 | 0.00 | 33 | 1001.7 |
| 20260906001551 | 23 | 119 | 4.8 | 12.9 | 0.00 | 0.00 | 0.00 | 31 | 1001.8 |
| 20260906000059 | 23 | 200 | 0.0 | 6.4 | 0.00 | 0.00 | 0.00 | 22 | 1002.1 |
| 20260905234554 | 24 | 195 | 0.0 | 4.8 | 0.00 | 0.00 | 0.00 | 21 | 1002.2 |
| 20260905233053 | 25 | 182 | 1.6 | 12.9 | 0.00 | 0.00 | 0.00 | 19 | 1002.1 |
| 20260905231550 | 26 | 266 | 1.6 | 8.0 | 0.00 | 0.00 | 0.00 | 19 | 1002.1 |
| 20260905230048 | 26 | 263 | 0.0 | 11.3 | 0.00 | 0.00 | 0.00 | 17 | 1002.3 |